Date,TemperatureHighF,TemperatureAvgF,TemperatureLowF,DewpointHighF,DewpointAvgF,DewpointLowF,HumidityHigh,HumidityAvg,HumidityLow,PressureMaxIn,PressureMinIn,WindSpeedMaxMPH,WindSpeedAvgMPH,GustSpeedMaxMPH,PrecipitationSumIn
2013-1-1,60,45,36,38,32,27,86,63,28,30.00,29.85,6,1,6,0.00
2013-1-2,63,45,35,41,29,22,85,58,23,29.91,29.83,6,2,6,0.00
2013-1-3,63,46,34,44,27,19,79,51,22,29.94,29.83,6,1,8,0.00
2013-1-4,66,46,34,28,22,17,67,41,19,30.00,29.91,5,1,6,0.00
2013-1-5,61,46,34,43,32,19,85,60,31,30.06,29.91,7,1,7,0.00
2013-1-6,57,46,38,50,41,37,98,85,54,29.94,29.80,10,1,10,0.00
2013-1-7,64,47,34,40,33,23,98,63,23,29.88,29.77,6,1,9,0.00
2013-1-8,68,49,37,47,35,27,90,63,23,29.85,29.80,5,1,5,0.00
2013-1-9,63,49,40,50,45,36,98,85,58,29.88,29.77,6,1,6,0.00
2013-1-10,60,48,41,46,27,13,98,51,20,29.88,29.68,16,4,18,0.00
2013-1-11,58,42,30,29,17,10,73,39,18,29.94,29.83,10,2,13,0.00
2013-1-12,57,41,31,23,19,13,68,43,23,29.91,29.83,8,1,8,0.00
2013-1-13,55,41,31,29,18,7,65,40,24,29.94,29.80,9,2,12,0.00
2013-1-14,56,39,28,22,12,3,54,34,21,30.09,29.88,5,1,6,0.00
2013-1-15,57,42,31,35,21,7,77,46,27,30.21,30.09,8,2,8,0.00
2013-1-16,62,44,32,34,26,21,76,53,22,30.12,29.91,6,1,8,0.00
2013-1-17,68,48,35,34,26,15,73,46,19,29.91,29.83,6,1,8,0.00
2013-1-18,72,51,38,26,18,11,39,28,15,29.88,29.80,6,1,8,0.00
2013-1-19,72,49,38,26,14,8,32,25,15,29.91,29.83,5,1,7,0.00
2013-1-20,70,51,38,21,15,8,37,25,15,29.88,29.77,5,1,6,0.00
2013-1-21,74,50,35,27,16,9,39,26,15,29.85,29.74,5,1,6,0.00
2013-1-22,72,51,37,27,16,8,39,25,15,29.83,29.77,6,1,7,0.00
2013-1-23,59,51,44,46,28,16,84,44,25,29.83,29.74,6,0,9,0.00
2013-1-24,59,54,50,56,52,45,98,92,74,29.88,29.80,6,1,9,0.83
2013-1-25,60,54,51,59,54,51,98,98,91,29.85,29.71,4,0,6,0.16
2013-1-26,64,55,51,60,52,48,98,91,63,29.74,29.65,6,0,6,0.12
2013-1-27,65,54,47,54,34,14,98,58,19,29.80,29.68,16,2,16,0.00
2013-1-28,63,48,36,28,20,14,63,36,17,29.94,29.80,11,2,13,0.00
2013-1-29,61,46,37,42,32,22,86,60,29,29.97,29.88,8,1,8,0.00
2013-1-30,65,48,38,42,36,28,89,66,27,30.09,29.97,5,1,6,0.00
2013-1-31,67,50,38,50,40,28,98,74,24,30.00,29.85,6,1,6,0.00